首页
METAR-TAF:

METAR-TAF

机场 :

乃磨機場

纳奈莫, 不列颠哥伦比亚, 加拿大

纬度: 49-03N, 经度: 123-52W, 海拔: 28米

当前天气观测

该预报发布于21分钟前的22:00 UTC
风速10节,风向南转南东
温度 24°C
湿度 47%
气压 1011 hPa
能見度: 48.3公里
少量云层高于7000英尺
散云层高于12000英尺
多云层高于25000英尺

METAR: CYCD 262200Z 15010KT 30SM FEW070 SCT120 BKN250 24/12 A2984 RMK AC1AC2CI3 SLP106 DENSITY ALT 1300FT

时间: 15:21 (22:21 UTC)

预报

该预报发布于4小时和42分钟前的17:39 UTC
预报有效从26日的 18点(UTC)到 27日的 04点(UTC)
风速5节,风向北转东北
能見度: 10公里
少量云层高于23000英尺
从 27日的 0100点(UTC)
风速5节,风向北转东北
能見度: 10公里
散云层高于8000英尺

TAF: CYCD 261739Z 2618/2704 02005KT P6SM FEW230 FM270100 03005KT P6SM SCT080 RMK NXT FCST BY 270000Z

超过4000个机场的气象观测和天气预报(METAR&TAF报告)。

可查询的气象台以黄色和红色小点在地图上表示。

将鼠标移到小点上方,可查看气象台名称。

然后点击查看天气观测和预报。

如需切换地图:点击带黑十字的绿色按钮放大地图;点击带横线的绿色按钮缩小地图;或者点击绿色箭头查看邻近地区的地图。


METAR-TAF: